Terminal Aerodrome Forecast
Issued by NWS Pittsburgh, PA

Current Version | Previous Version | Graphics & Text | Print | Product List | Glossary On
Versions: 1 2 3 4 5 6 7 8 9 10 11 12 13 14 15 16 17 18 19 20 21 22 23 24 25 26 27 28 29 30
000
FTUS41 KPBZ 260200 AAA
TAFPIT
TAF AMD
KPIT 260259Z 2603/2706 03008KT P6SM BKN130 OVC220
     FM261300 02007KT P6SM BKN030 OVC100
     FM261400 02008KT 2SM -SHSN BKN015 OVC025
     FM261800 34010KT 2SM -SHSN BKN015=

USA.gov is the U.S. government's official web portal to all federal, state and local government web resources and services.